createdAt,value
2017-12-25T00:01:06.447Z,8.00
2017-12-25T00:03:34.674Z,8.00
2017-12-25T00:06:02.147Z,8.00
2017-12-25T00:08:29.603Z,8.00
2017-12-25T00:10:57.091Z,8.00
2017-12-25T00:13:25.327Z,7.90
2017-12-25T00:15:52.811Z,7.90
2017-12-25T00:18:20.300Z,7.90
2017-12-25T00:20:48.537Z,7.90
2017-12-25T00:23:16.966Z,7.90
2017-12-25T00:25:45.026Z,7.90
2017-12-25T00:28:13.306Z,7.80
2017-12-25T00:30:41.575Z,7.80
2017-12-25T00:33:09.865Z,7.80
2017-12-25T00:35:37.350Z,7.80
2017-12-25T00:38:04.802Z,7.80
2017-12-25T00:40:32.374Z,7.80
2017-12-25T00:42:59.835Z,7.80
2017-12-25T00:45:27.316Z,7.80
2017-12-25T00:47:55.097Z,7.80
2017-12-25T00:50:22.591Z,7.80
2017-12-25T00:52:50.053Z,7.70
2017-12-25T00:55:17.521Z,7.70
2017-12-25T00:57:44.982Z,7.70
2017-12-25T01:00:12.612Z,7.70
2017-12-25T01:02:40.114Z,7.70
2017-12-25T01:05:07.577Z,7.80
2017-12-25T01:07:35.062Z,7.80
2017-12-25T01:10:02.526Z,7.80
2017-12-25T01:12:30.005Z,7.80
2017-12-25T01:14:58.266Z,7.70
2017-12-25T01:17:25.762Z,7.70
2017-12-25T01:19:53.219Z,7.70
2017-12-25T01:22:20.765Z,7.70
2017-12-25T01:24:48.223Z,7.70
2017-12-25T01:27:15.703Z,7.70
2017-12-25T01:29:43.170Z,7.70
2017-12-25T01:32:10.655Z,7.70
2017-12-25T01:34:38.117Z,7.70
2017-12-25T01:37:05.599Z,7.70
2017-12-25T01:39:33.836Z,7.70
2017-12-25T01:42:01.306Z,7.60
2017-12-25T01:44:28.782Z,7.70
2017-12-25T01:47:06.218Z,7.60
2017-12-25T01:49:33.698Z,7.70
2017-12-25T01:52:01.198Z,7.70
2017-12-25T01:54:44.403Z,7.60
2017-12-25T01:57:27.434Z,7.60
2017-12-25T02:02:52.822Z,7.70
2017-12-25T02:08:26.046Z,7.70
2017-12-25T02:10:53.539Z,7.70
2017-12-25T02:13:21.783Z,7.70
2017-12-25T02:15:49.322Z,7.70
2017-12-25T02:18:16.762Z,7.70
2017-12-25T02:20:44.248Z,7.70
2017-12-25T02:23:11.730Z,7.70
2017-12-25T02:25:39.259Z,7.60
2017-12-25T02:28:06.777Z,7.60
2017-12-25T02:30:35.057Z,7.60
2017-12-25T02:33:03.291Z,7.60
2017-12-25T02:35:30.826Z,7.50
2017-12-25T02:37:58.902Z,7.50
2017-12-25T02:40:26.394Z,7.50
2017-12-25T02:42:53.873Z,7.50
2017-12-25T02:45:21.355Z,7.50
2017-12-25T02:47:48.838Z,7.50
2017-12-25T02:50:16.327Z,7.50
2017-12-25T02:52:43.814Z,7.50
2017-12-25T02:55:12.090Z,7.40
2017-12-25T02:57:40.470Z,7.40
2017-12-25T03:00:08.760Z,7.40
2017-12-25T03:02:36.262Z,7.40
2017-12-25T03:05:03.735Z,7.40
2017-12-25T03:07:31.469Z,7.40
2017-12-25T03:09:58.934Z,7.40
2017-12-25T03:12:26.411Z,7.50
2017-12-25T03:14:53.892Z,7.50
2017-12-25T03:17:21.374Z,7.50
2017-12-25T03:19:48.847Z,7.50
2017-12-25T03:22:16.338Z,7.50
2017-12-25T03:24:43.843Z,7.50
2017-12-25T03:27:12.088Z,7.50
2017-12-25T03:29:39.594Z,7.50
2017-12-25T03:32:07.064Z,7.60
2017-12-25T03:34:34.568Z,7.60
2017-12-25T03:37:02.048Z,7.60
2017-12-25T03:39:30.304Z,7.60
2017-12-25T03:41:58.681Z,7.70
2017-12-25T03:44:26.151Z,7.60
2017-12-25T03:46:53.645Z,7.60
2017-12-25T03:49:21.134Z,7.70
2017-12-25T03:51:48.622Z,7.70
2017-12-25T03:54:16.100Z,7.70
2017-12-25T03:56:44.333Z,7.70
2017-12-25T03:59:11.820Z,7.70
2017-12-25T04:01:39.299Z,7.70
2017-12-25T04:04:07.558Z,7.70
2017-12-25T04:06:36.531Z,7.70
2017-12-25T04:09:04.011Z,7.70
2017-12-25T04:11:31.492Z,7.80
2017-12-25T04:13:58.979Z,7.80
2017-12-25T04:16:26.442Z,7.80
2017-12-25T04:18:53.932Z,7.80
2017-12-25T04:21:21.416Z,7.80
2017-12-25T04:23:49.667Z,7.70
2017-12-25T04:26:17.134Z,7.70
2017-12-25T04:28:45.438Z,7.80
2017-12-25T04:31:12.934Z,7.70
2017-12-25T04:33:40.487Z,7.70
2017-12-25T04:36:07.941Z,7.70
2017-12-25T04:38:35.428Z,7.70
2017-12-25T04:41:02.914Z,7.80
2017-12-25T04:43:31.238Z,7.70
2017-12-25T04:45:58.723Z,7.70
2017-12-25T04:48:26.197Z,7.80
2017-12-25T04:50:53.693Z,7.80
2017-12-25T04:53:21.179Z,7.80
2017-12-25T04:55:48.658Z,7.80
2017-12-25T04:58:16.143Z,7.80
2017-12-25T05:00:43.630Z,7.80
2017-12-25T05:03:11.094Z,7.80
2017-12-25T05:05:38.598Z,7.80
2017-12-25T05:08:06.067Z,7.80
2017-12-25T05:10:33.551Z,7.80
2017-12-25T05:13:01.950Z,7.80
2017-12-25T05:15:29.413Z,7.70
2017-12-25T05:17:57.258Z,7.80
2017-12-25T05:20:24.727Z,7.80
2017-12-25T05:22:52.251Z,7.80
2017-12-25T05:25:19.726Z,7.70
2017-12-25T05:27:47.970Z,7.70
2017-12-25T05:30:15.447Z,7.70
2017-12-25T05:32:42.929Z,7.70
2017-12-25T05:35:10.462Z,7.70
2017-12-25T05:37:37.947Z,7.70
2017-12-25T05:40:06.217Z,7.70
2017-12-25T05:42:34.458Z,7.70
2017-12-25T05:45:01.974Z,7.70
2017-12-25T05:47:29.446Z,7.60
2017-12-25T05:49:56.933Z,7.60
2017-12-25T05:52:24.408Z,7.60
2017-12-25T05:54:52.659Z,7.60
2017-12-25T05:57:20.135Z,7.50
2017-12-25T05:59:47.610Z,7.50
2017-12-25T06:02:15.873Z,7.60
2017-12-25T06:04:44.861Z,7.50
2017-12-25T06:07:12.335Z,7.50
2017-12-25T06:09:40.578Z,7.60
2017-12-25T06:12:08.056Z,7.50
2017-12-25T06:14:35.522Z,7.50
2017-12-25T06:17:03.785Z,7.50
2017-12-25T06:19:31.264Z,7.50
2017-12-25T06:21:58.753Z,7.60
2017-12-25T06:24:26.260Z,7.50
2017-12-25T06:26:53.736Z,7.50
2017-12-25T06:29:21.493Z,7.50
2017-12-25T06:31:48.955Z,7.50
2017-12-25T06:34:16.434Z,7.50
2017-12-25T06:36:44.730Z,7.40
2017-12-25T06:39:12.956Z,7.40
2017-12-25T06:41:40.463Z,7.30
2017-12-25T06:44:08.698Z,7.30
2017-12-25T06:46:36.189Z,7.30
2017-12-25T06:49:04.422Z,7.30
2017-12-25T06:51:31.939Z,7.30
2017-12-25T06:53:59.423Z,7.30
2017-12-25T06:56:26.887Z,7.30
2017-12-25T06:58:54.364Z,7.30
2017-12-25T07:01:21.831Z,7.30
2017-12-25T07:03:49.322Z,7.30
2017-12-25T07:06:17.596Z,7.30
2017-12-25T07:08:45.849Z,7.20
2017-12-25T07:11:13.329Z,7.20
2017-12-25T07:13:41.819Z,7.30
2017-12-25T07:16:10.073Z,7.20
2017-12-25T07:18:37.563Z,7.20
2017-12-25T07:21:05.041Z,7.20
2017-12-25T07:23:32.539Z,7.20
2017-12-25T07:26:00.041Z,7.30
2017-12-25T07:28:27.576Z,7.20
2017-12-25T07:30:55.826Z,7.20
2017-12-25T07:33:23.289Z,7.20
2017-12-25T07:35:51.528Z,7.20
2017-12-25T07:38:19.008Z,7.20
2017-12-25T07:40:46.514Z,7.30
2017-12-25T07:43:14.755Z,7.30
2017-12-25T07:45:42.263Z,7.20
2017-12-25T07:48:09.739Z,7.30
2017-12-25T07:50:37.224Z,7.30
2017-12-25T07:53:04.692Z,7.30
2017-12-25T07:55:32.928Z,7.30
2017-12-25T07:58:00.417Z,7.30
2017-12-25T08:00:27.882Z,7.30
2017-12-25T08:02:55.346Z,7.30
2017-12-25T08:05:22.869Z,7.30
2017-12-25T08:07:50.347Z,7.40
2017-12-25T08:10:18.046Z,7.30
2017-12-25T08:12:46.306Z,7.30
2017-12-25T08:15:13.799Z,7.40
2017-12-25T08:17:41.317Z,7.40
2017-12-25T08:20:08.833Z,7.40
2017-12-25T08:22:36.323Z,7.40
2017-12-25T08:25:04.738Z,7.40
2017-12-25T08:27:32.213Z,7.40
2017-12-25T08:30:00.499Z,7.40
2017-12-25T08:32:27.941Z,7.40
2017-12-25T08:34:56.211Z,7.40
2017-12-25T08:37:23.697Z,7.40
2017-12-25T08:39:51.925Z,7.40
2017-12-25T08:42:20.179Z,7.40
2017-12-25T08:44:47.666Z,7.40
2017-12-25T08:47:15.137Z,7.40
2017-12-25T08:49:43.370Z,7.40
2017-12-25T08:52:10.866Z,7.40
2017-12-25T08:54:39.151Z,7.40
2017-12-25T08:57:07.674Z,7.40
2017-12-25T08:59:35.261Z,7.40
2017-12-25T09:02:02.714Z,7.40
2017-12-25T09:04:30.204Z,7.50
2017-12-25T09:06:57.722Z,7.40
2017-12-25T09:09:25.201Z,7.40
2017-12-25T09:11:52.694Z,7.40
2017-12-25T09:14:21.170Z,7.50
2017-12-25T09:16:50.741Z,7.50
2017-12-25T09:19:19.364Z,7.50
2017-12-25T09:21:47.128Z,7.50
2017-12-25T09:24:15.367Z,7.50
2017-12-25T09:26:44.607Z,7.50
2017-12-25T09:29:13.209Z,7.50
2017-12-25T09:31:40.882Z,7.50
2017-12-25T09:34:10.280Z,7.50
2017-12-25T09:36:37.967Z,7.50
2017-12-25T09:39:06.475Z,7.60
2017-12-25T09:41:34.153Z,7.60
2017-12-25T09:44:02.428Z,7.50
2017-12-25T09:46:29.984Z,7.60
2017-12-25T09:48:57.481Z,7.60
2017-12-25T09:51:25.851Z,7.60
2017-12-25T09:53:54.151Z,7.60
2017-12-25T09:56:21.655Z,7.60
2017-12-25T09:58:49.206Z,7.60
2017-12-25T10:01:16.789Z,7.60
2017-12-25T10:03:44.398Z,7.70
2017-12-25T10:06:13.024Z,7.70
2017-12-25T10:08:40.966Z,7.70
2017-12-25T10:11:08.737Z,7.70
2017-12-25T10:13:36.401Z,7.70
2017-12-25T10:16:03.979Z,7.70
2017-12-25T10:18:31.573Z,7.70
2017-12-25T10:20:59.807Z,7.80
2017-12-25T10:23:27.481Z,7.80
2017-12-25T10:25:55.891Z,7.90
2017-12-25T10:28:23.385Z,7.90
2017-12-25T10:30:51.001Z,7.90
2017-12-25T10:33:18.606Z,7.90
2017-12-25T10:35:47.878Z,7.80
2017-12-25T10:38:16.114Z,7.80
2017-12-25T10:40:43.614Z,7.80
2017-12-25T10:43:11.891Z,8.00
2017-12-25T10:45:40.219Z,8.00
2017-12-25T10:48:07.910Z,8.00
2017-12-25T10:50:35.590Z,8.10
2017-12-25T10:53:03.628Z,8.30
2017-12-25T10:55:33.273Z,8.40
2017-12-25T10:58:05.150Z,8.30
2017-12-25T11:00:48.105Z,8.30
2017-12-25T11:05:57.258Z,8.20
2017-12-25T11:08:25.523Z,8.20
2017-12-25T11:10:53.011Z,8.30
2017-12-25T11:13:21.970Z,8.30
2017-12-25T11:15:54.075Z,8.30
2017-12-25T11:18:27.400Z,8.30
2017-12-25T11:21:03.400Z,8.40
2017-12-25T11:23:33.337Z,8.40
2017-12-25T11:26:06.421Z,8.30
2017-12-25T11:28:35.546Z,8.30
2017-12-25T11:31:07.359Z,8.20
2017-12-25T11:33:48.330Z,8.20
2017-12-25T11:36:19.996Z,8.40
2017-12-25T11:38:52.670Z,8.40
2017-12-25T11:41:23.528Z,8.60
2017-12-25T11:43:55.184Z,8.70
2017-12-25T11:46:27.321Z,8.50
2017-12-25T11:49:01.077Z,8.50
2017-12-25T11:51:33.799Z,8.50
2017-12-25T11:54:05.169Z,8.40
2017-12-25T11:56:35.394Z,8.50
2017-12-25T11:59:13.078Z,8.60
2017-12-25T12:01:42.460Z,8.50
2017-12-25T12:04:22.501Z,8.40
2017-12-25T12:06:51.672Z,8.40
2017-12-25T12:09:19.731Z,8.30
2017-12-25T12:12:07.482Z,8.40
2017-12-25T12:14:36.190Z,8.50
2017-12-25T12:17:09.343Z,8.60
2017-12-25T12:19:38.563Z,8.80
2017-12-25T12:22:06.091Z,8.90
2017-12-25T12:24:33.652Z,8.80
2017-12-25T12:27:01.264Z,8.70
2017-12-25T12:29:30.968Z,8.60
2017-12-25T12:32:07.784Z,8.60
2017-12-25T12:34:35.374Z,8.70
2017-12-25T12:37:03.570Z,8.60
2017-12-25T12:39:31.035Z,8.50
2017-12-25T12:41:58.844Z,8.40
2017-12-25T12:44:27.577Z,8.20
2017-12-25T12:46:55.134Z,8.20
2017-12-25T12:49:22.620Z,8.30
2017-12-25T12:51:50.101Z,8.40
2017-12-25T12:54:18.380Z,8.40
2017-12-25T12:56:46.692Z,8.40
2017-12-25T12:59:14.170Z,8.40
2017-12-25T13:01:41.675Z,8.40
2017-12-25T13:04:09.898Z,8.40
2017-12-25T13:06:37.382Z,8.40
2017-12-25T13:09:05.722Z,8.30
2017-12-25T13:11:33.211Z,8.30
2017-12-25T13:14:00.743Z,8.20
2017-12-25T13:16:28.212Z,8.20
2017-12-25T13:18:56.205Z,8.10
2017-12-25T13:21:23.814Z,8.00
2017-12-25T13:23:51.290Z,8.00
2017-12-25T13:26:18.759Z,7.90
2017-12-25T13:28:51.466Z,7.90
2017-12-25T13:31:22.969Z,7.90
2017-12-25T13:33:56.894Z,7.90
2017-12-25T13:36:28.036Z,7.90
2017-12-25T13:41:54.126Z,7.70
2017-12-25T13:44:21.622Z,7.60
2017-12-25T13:46:49.182Z,7.60
2017-12-25T13:49:16.704Z,7.50
2017-12-25T13:51:49.778Z,7.50
2017-12-25T13:54:19.975Z,7.50
2017-12-25T13:56:50.214Z,7.60
2017-12-25T13:59:18.194Z,7.60
2017-12-25T14:01:45.669Z,7.50
2017-12-25T14:04:13.411Z,7.50
2017-12-25T14:06:40.961Z,7.50
2017-12-25T14:09:08.430Z,7.40
2017-12-25T14:11:35.925Z,7.30
2017-12-25T14:14:03.387Z,7.20
2017-12-25T14:16:31.626Z,7.10
2017-12-25T14:18:59.104Z,7.00
2017-12-25T14:21:26.624Z,6.90
2017-12-25T14:23:54.097Z,6.90
2017-12-25T14:26:21.570Z,6.90
2017-12-25T14:28:49.057Z,7.00
2017-12-25T14:31:17.315Z,7.00
2017-12-25T14:33:46.743Z,6.90
2017-12-25T14:36:17.352Z,6.90
2017-12-25T14:38:44.874Z,6.90
2017-12-25T14:41:12.348Z,6.90
2017-12-25T14:43:39.866Z,6.90
2017-12-25T14:46:07.295Z,6.90
2017-12-25T14:48:35.545Z,6.70
2017-12-25T14:51:05.386Z,6.70
2017-12-25T14:53:32.854Z,6.70
2017-12-25T14:56:01.164Z,6.40
2017-12-25T14:58:28.693Z,6.40
2017-12-25T15:00:56.927Z,6.30
2017-12-25T15:03:29.698Z,6.30
2017-12-25T15:05:57.171Z,6.20
2017-12-25T15:08:24.628Z,6.10
2017-12-25T15:10:52.169Z,6.00
2017-12-25T15:13:19.640Z,6.00
2017-12-25T15:15:47.232Z,6.10
2017-12-25T15:18:14.825Z,6.00
2017-12-25T15:20:42.712Z,5.90
2017-12-25T15:23:10.175Z,5.90
2017-12-25T15:25:37.674Z,5.90
2017-12-25T15:28:05.167Z,5.90
2017-12-25T15:30:33.406Z,5.80
2017-12-25T15:33:00.958Z,5.80
2017-12-25T15:35:28.462Z,5.70
2017-12-25T15:37:57.118Z,5.70
2017-12-25T15:40:24.615Z,5.60
2017-12-25T15:42:52.850Z,5.70
2017-12-25T15:45:20.328Z,5.60
2017-12-25T15:47:48.562Z,5.70
2017-12-25T15:50:16.059Z,5.60
2017-12-25T15:52:43.557Z,5.70
2017-12-25T15:55:11.956Z,5.70
2017-12-25T15:57:39.432Z,5.60
2017-12-25T16:00:07.002Z,5.50
2017-12-25T16:02:34.502Z,5.40
2017-12-25T16:05:02.739Z,5.40
2017-12-25T16:07:30.214Z,5.40
2017-12-25T16:09:58.467Z,5.30
2017-12-25T16:12:25.947Z,5.30
2017-12-25T16:14:53.571Z,5.30
2017-12-25T16:17:21.031Z,5.20
2017-12-25T16:19:48.548Z,5.20
2017-12-25T16:22:16.212Z,5.20
2017-12-25T16:24:43.734Z,5.20
2017-12-25T16:27:11.241Z,5.20
2017-12-25T16:29:38.733Z,5.20
2017-12-25T16:32:06.231Z,5.20
2017-12-25T16:34:33.779Z,5.10
2017-12-25T16:37:02.772Z,5.00
2017-12-25T16:39:30.248Z,5.00
2017-12-25T16:41:58.509Z,5.00
2017-12-25T16:44:25.967Z,5.00
2017-12-25T16:46:54.251Z,5.00
2017-12-25T16:49:22.499Z,4.90
2017-12-25T16:51:50.001Z,4.90
2017-12-25T16:54:18.270Z,4.90
2017-12-25T16:56:46.527Z,4.90
2017-12-25T16:59:13.995Z,4.80
2017-12-25T17:01:42.277Z,4.80
2017-12-25T17:04:10.547Z,4.80
2017-12-25T17:06:38.133Z,4.80
2017-12-25T17:09:05.596Z,4.80
2017-12-25T17:11:33.062Z,4.80
2017-12-25T17:14:00.536Z,4.70
2017-12-25T17:16:28.015Z,4.70
2017-12-25T17:18:55.496Z,4.70
2017-12-25T17:21:22.981Z,4.70
2017-12-25T17:23:51.267Z,4.60
2017-12-25T17:26:18.736Z,4.60
2017-12-25T17:28:46.214Z,4.70
2017-12-25T17:31:13.685Z,4.70
2017-12-25T17:33:41.361Z,4.70
2017-12-25T17:36:08.826Z,4.70
2017-12-25T17:38:36.296Z,4.60
2017-12-25T17:41:04.539Z,4.30
2017-12-25T17:43:32.042Z,4.30
2017-12-25T17:46:00.290Z,4.30
2017-12-25T17:48:28.027Z,4.20
2017-12-25T17:50:55.518Z,4.10
2017-12-25T17:53:23.583Z,4.10
2017-12-25T17:55:51.137Z,4.00
2017-12-25T17:58:18.612Z,3.90
2017-12-25T18:00:46.079Z,3.90
2017-12-25T18:03:13.542Z,3.90
2017-12-25T18:05:41.910Z,3.90
2017-12-25T18:08:09.748Z,3.90
2017-12-25T18:10:37.257Z,3.90
2017-12-25T18:13:05.706Z,3.90
2017-12-25T18:15:34.086Z,3.80
2017-12-25T18:18:02.221Z,3.80
2017-12-25T18:20:29.693Z,3.80
2017-12-25T18:22:57.188Z,3.80
2017-12-25T18:25:25.527Z,3.70
2017-12-25T18:27:53.798Z,3.70
2017-12-25T18:30:21.291Z,3.70
2017-12-25T18:32:48.750Z,3.70
2017-12-25T18:35:16.267Z,3.60
2017-12-25T18:37:43.765Z,3.60
2017-12-25T18:40:11.253Z,3.60
2017-12-25T18:42:39.508Z,3.50
2017-12-25T18:45:07.045Z,3.50
2017-12-25T18:47:34.529Z,3.60
2017-12-25T18:50:02.018Z,3.50
2017-12-25T18:52:29.510Z,3.50
2017-12-25T18:54:56.986Z,3.50
2017-12-25T18:57:24.492Z,3.50
2017-12-25T18:59:52.778Z,3.60
2017-12-25T19:02:20.331Z,3.60
2017-12-25T19:04:48.561Z,3.60
2017-12-25T19:07:16.027Z,3.60
2017-12-25T19:09:43.534Z,3.70
2017-12-25T19:12:11.003Z,3.70
2017-12-25T19:14:38.498Z,3.70
2017-12-25T19:17:05.985Z,3.70
2017-12-25T19:19:42.980Z,3.70
2017-12-25T19:22:10.634Z,3.70
2017-12-25T19:24:38.858Z,3.70
2017-12-25T19:27:06.444Z,3.70
2017-12-25T19:29:34.169Z,3.70
2017-12-25T19:32:01.722Z,3.70
2017-12-25T19:34:29.203Z,3.70
2017-12-25T19:36:56.678Z,3.70
2017-12-25T19:39:24.159Z,3.70
2017-12-25T19:41:51.688Z,3.70
2017-12-25T19:44:19.156Z,3.60
2017-12-25T19:46:46.614Z,3.60
2017-12-25T19:49:14.307Z,3.60
2017-12-25T19:51:41.778Z,3.70
2017-12-25T19:54:10.027Z,3.70
2017-12-25T19:56:37.504Z,3.70
2017-12-25T19:59:05.771Z,3.80
2017-12-25T20:01:33.397Z,3.70
2017-12-25T20:04:00.892Z,3.80
2017-12-25T20:06:28.929Z,3.80
2017-12-25T20:08:56.417Z,3.70
2017-12-25T20:11:23.983Z,3.70
2017-12-25T20:13:51.532Z,3.70
2017-12-25T20:16:19.127Z,3.70
2017-12-25T20:18:46.636Z,3.70
2017-12-25T20:21:14.579Z,3.60
2017-12-25T20:23:42.237Z,3.60
2017-12-25T20:26:09.766Z,3.60
2017-12-25T20:28:38.019Z,3.60
2017-12-25T20:31:06.376Z,3.60
2017-12-25T20:33:33.860Z,3.60
2017-12-25T20:36:01.428Z,3.60
2017-12-25T20:38:28.905Z,3.60
2017-12-25T20:40:56.376Z,3.50
2017-12-25T20:43:23.964Z,3.50
2017-12-25T20:45:52.947Z,3.50
2017-12-25T20:48:20.472Z,3.60
2017-12-25T20:50:48.696Z,3.50
2017-12-25T20:53:16.196Z,3.60
2017-12-25T20:55:43.695Z,3.50
2017-12-25T20:58:11.186Z,3.40
2017-12-25T21:00:38.675Z,3.40
2017-12-25T21:03:06.925Z,3.40
2017-12-25T21:05:34.458Z,3.40
2017-12-25T21:08:01.941Z,3.40
2017-12-25T21:10:30.225Z,3.40
2017-12-25T21:12:57.755Z,3.40
2017-12-25T21:15:25.225Z,3.40
2017-12-25T21:17:52.724Z,3.40
2017-12-25T21:20:20.214Z,3.30
2017-12-25T21:22:47.685Z,3.10
2017-12-25T21:25:15.162Z,3.00
2017-12-25T21:27:42.712Z,2.90
2017-12-25T21:30:10.236Z,2.80
2017-12-25T21:32:37.796Z,2.70
2017-12-25T21:35:05.326Z,2.70
2017-12-25T21:37:33.596Z,2.50
2017-12-25T21:40:01.092Z,2.50
2017-12-25T21:42:29.351Z,2.40
2017-12-25T21:44:56.846Z,2.30
2017-12-25T21:47:24.314Z,2.30
2017-12-25T21:49:51.791Z,2.20
2017-12-25T21:52:19.271Z,2.10
2017-12-25T21:54:46.777Z,2.10
2017-12-25T21:57:14.284Z,2.00
2017-12-25T21:59:42.015Z,1.90
2017-12-25T22:02:09.522Z,1.70
2017-12-25T22:04:37.806Z,1.70
2017-12-25T22:07:05.279Z,1.70
2017-12-25T22:09:33.529Z,1.50
2017-12-25T22:12:01.011Z,1.50
2017-12-25T22:14:29.258Z,1.30
2017-12-25T22:16:56.747Z,1.30
2017-12-25T22:19:24.229Z,1.20
2017-12-25T22:21:51.734Z,1.00
2017-12-25T22:24:19.214Z,0.90
2017-12-25T22:26:46.724Z,0.70
2017-12-25T22:29:14.204Z,0.70
2017-12-25T22:31:41.674Z,0.60
2017-12-25T22:34:09.187Z,0.50
2017-12-25T22:36:36.669Z,0.40
2017-12-25T22:39:04.165Z,0.40
2017-12-25T22:41:32.423Z,0.30
2017-12-25T22:43:59.926Z,0.30
2017-12-25T22:46:27.469Z,0.20
2017-12-25T22:48:54.960Z,0.10
2017-12-25T22:51:22.437Z,0.00
2017-12-25T22:53:49.901Z,-0.10
2017-12-25T22:56:17.394Z,-0.10
2017-12-25T22:58:45.636Z,-0.10
2017-12-25T23:01:13.153Z,-0.20
2017-12-25T23:03:40.717Z,0.00
2017-12-25T23:06:08.216Z,0.00
2017-12-25T23:08:35.699Z,0.00
2017-12-25T23:11:03.208Z,0.00
2017-12-25T23:13:30.663Z,0.00
2017-12-25T23:15:58.344Z,0.00
2017-12-25T23:18:25.831Z,0.00
2017-12-25T23:20:53.686Z,-0.10
2017-12-25T23:23:21.174Z,0.00
2017-12-25T23:25:49.546Z,0.20
2017-12-25T23:28:17.026Z,0.20
2017-12-25T23:30:44.503Z,0.40
2017-12-25T23:33:12.004Z,0.40
2017-12-25T23:35:39.668Z,0.40
2017-12-25T23:38:07.140Z,0.40
2017-12-25T23:40:34.642Z,0.40
2017-12-25T23:43:02.330Z,0.50
2017-12-25T23:45:30.031Z,0.70
2017-12-25T23:47:58.282Z,1.20
2017-12-25T23:50:25.768Z,1.20
2017-12-25T23:52:54.030Z,1.80
2017-12-25T23:55:21.546Z,1.80
2017-12-25T23:57:49.032Z,1.80
